This is the latest recevied weather packets stored in our database for station/object VE6CWS-7. If no packets are shown the sender has not sent any weather packets the latest 10 day(s).
| Time | Temp. | Humidity | Pressure | Rain* | Wind** | Luminosity | Snow |
|---|---|---|---|---|---|---|---|
| 1777483838 | 10.56° C | 40% | 1023.4 hPa | 0 mm | - | - | - |
| 1777482937 | 10° C | 44% | 1023.6 hPa | 0 mm | - | - | - |
| 1777482092 | 10° C | 45% | 1023.8 hPa | 0 mm | - | - | - |
| 1777481164 | 9.44° C | 47% | 1023.8 hPa | 0 mm | - | - | - |
| 1777480254 | 8.33° C | 49% | 1023.8 hPa | 0 mm | - | - | - |
| 1777479351 | 7.78° C | 50% | 1023.8 hPa | 0 mm | - | - | - |
| 1777478508 | 7.22° C | 55% | 1023.9 hPa | 0 mm | - | - | - |
| 1777477566 | 6.67° C | 55% | 1023.9 hPa | 0 mm | - | - | - |
| 1777476648 | 5.56° C | 64% | 1023.8 hPa | 0 mm | - | - | - |
| 1777475749 | 5° C | 67% | 1023.7 hPa | 0 mm | - | - | - |
| 1777474901 | 3.89° C | 71% | 1023.8 hPa | 0 mm | - | - | - |
| 1777473943 | 2.78° C | 74% | 1023.8 hPa | 0 mm | - | - | - |
| 1777473040 | 2.22° C | 76% | 1023.9 hPa | 0 mm | - | - | - |
| 1777472138 | 1.11° C | 78% | 1023.8 hPa | 0 mm | - | - | - |
| 1777471296 | 0° C | 81% | 1023.9 hPa | 0 mm | - | - | - |
| 1777470339 | -1.11° C | 84% | 1023.7 hPa | 0 mm | - | - | - |
| 1777469438 | -2.22° C | 84% | 1023.6 hPa | 0 mm | - | - | - |
| 1777468535 | -2.78° C | 85% | 1023.5 hPa | 0 mm | - | - | - |
| 1777467693 | -3.33° C | 85% | 1023.3 hPa | 0 mm | - | - | - |
| 1777466752 | -3.89° C | 85% | 1023.2 hPa | 0 mm | - | - | - |
| 1777465853 | -3.89° C | 84% | 1023 hPa | 0 mm | - | - | - |
| 1777464946 | -3.33° C | 82% | 1022.9 hPa | 0 mm | - | - | - |
| 1777464106 | -2.78° C | 83% | 1022.9 hPa | 0 mm | - | - | - |
| 1777463149 | -2.78° C | 83% | 1022.8 hPa | 0 mm | - | - | - |
| 1777462248 | -2.78° C | 82% | 1022.7 hPa | 0 mm | - | - | - |
* Rain latest hour (hover to see other rain measurements)
** Current wind speed in m/s (hover to see current wind gust speed)